sensor_id;sensor_type;location;lat;lon;timestamp;temperature;humidity
66506;HTU21D;53332;51.082;5.832;2023-05-07T00:01:32;16.17;118.99
66506;HTU21D;53332;51.082;5.832;2023-05-07T00:03:58;16.15;118.99
66506;HTU21D;53332;51.082;5.832;2023-05-07T00:06:23;16.15;118.99
66506;HTU21D;53332;51.082;5.832;2023-05-07T00:08:49;16.17;118.99
66506;HTU21D;53332;51.082;5.832;2023-05-07T00:11:14;16.21;118.99
66506;HTU21D;53332;51.082;5.832;2023-05-07T00:13:40;16.26;118.99
66506;HTU21D;53332;51.082;5.832;2023-05-07T00:16:05;16.25;118.99
66506;HTU21D;53332;51.082;5.832;2023-05-07T00:18:31;16.25;118.99
66506;HTU21D;53332;51.082;5.832;2023-05-07T00:20:56;16.27;118.99
66506;HTU21D;53332;51.082;5.832;2023-05-07T00:23:22;16.31;118.99
66506;HTU21D;53332;51.082;5.832;2023-05-07T00:25:48;16.33;118.99
66506;HTU21D;53332;51.082;5.832;2023-05-07T00:28:14;16.37;118.99
66506;HTU21D;53332;51.082;5.832;2023-05-07T00:30:39;16.39;118.99
66506;HTU21D;53332;51.082;5.832;2023-05-07T00:33:05;16.41;118.99
66506;HTU21D;53332;51.082;5.832;2023-05-07T00:35:30;16.44;118.99
66506;HTU21D;53332;51.082;5.832;2023-05-07T00:37:56;16.48;118.99
66506;HTU21D;53332;51.082;5.832;2023-05-07T00:40:21;16.49;118.99
66506;HTU21D;53332;51.082;5.832;2023-05-07T00:42:47;16.49;118.99
66506;HTU21D;53332;51.082;5.832;2023-05-07T00:45:15;16.44;118.99
66506;HTU21D;53332;51.082;5.832;2023-05-07T00:47:41;16.37;118.99
66506;HTU21D;53332;51.082;5.832;2023-05-07T00:50:08;16.34;118.99
66506;HTU21D;53332;51.082;5.832;2023-05-07T00:52:35;16.31;118.99
66506;HTU21D;53332;51.082;5.832;2023-05-07T00:55:05;16.33;118.99
66506;HTU21D;53332;51.082;5.832;2023-05-07T00:57:40;16.35;118.99
66506;HTU21D;53332;51.082;5.832;2023-05-07T01:00:07;16.35;118.99
66506;HTU21D;53332;51.082;5.832;2023-05-07T01:02:41;16.35;118.99
66506;HTU21D;53332;51.082;5.832;2023-05-07T01:05:11;16.34;118.99
66506;HTU21D;53332;51.082;5.832;2023-05-07T01:07:40;16.34;118.99
66506;HTU21D;53332;51.082;5.832;2023-05-07T01:10:07;16.34;118.99
66506;HTU21D;53332;51.082;5.832;2023-05-07T01:12:36;16.39;118.99
66506;HTU21D;53332;51.082;5.832;2023-05-07T01:15:03;16.42;118.99
66506;HTU21D;53332;51.082;5.832;2023-05-07T01:17:36;16.44;118.99
66506;HTU21D;53332;51.082;5.832;2023-05-07T01:20:05;16.45;118.99
66506;HTU21D;53332;51.082;5.832;2023-05-07T01:22:38;16.48;118.99
66506;HTU21D;53332;51.082;5.832;2023-05-07T01:25:05;16.47;118.99
66506;HTU21D;53332;51.082;5.832;2023-05-07T01:27:31;16.46;118.99
66506;HTU21D;53332;51.082;5.832;2023-05-07T01:29:59;16.45;118.99
66506;HTU21D;53332;51.082;5.832;2023-05-07T01:32:32;16.42;118.99
66506;HTU21D;53332;51.082;5.832;2023-05-07T01:35:01;16.39;118.99
66506;HTU21D;53332;51.082;5.832;2023-05-07T01:37:28;16.29;118.99
66506;HTU21D;53332;51.082;5.832;2023-05-07T01:39:55;16.17;118.99
66506;HTU21D;53332;51.082;5.832;2023-05-07T01:42:21;16.06;118.99
66506;HTU21D;53332;51.082;5.832;2023-05-07T01:44:47;15.99;118.99
66506;HTU21D;53332;51.082;5.832;2023-05-07T01:47:14;15.97;118.99
66506;HTU21D;53332;51.082;5.832;2023-05-07T01:49:40;15.99;118.99
66506;HTU21D;53332;51.082;5.832;2023-05-07T01:52:06;15.98;118.99
66506;HTU21D;53332;51.082;5.832;2023-05-07T01:54:31;15.99;118.99
66506;HTU21D;53332;51.082;5.832;2023-05-07T01:56:57;16.00;118.99
66506;HTU21D;53332;51.082;5.832;2023-05-07T01:59:22;16.00;118.99
66506;HTU21D;53332;51.082;5.832;2023-05-07T02:01:48;15.99;118.99
66506;HTU21D;53332;51.082;5.832;2023-05-07T02:04:13;15.97;118.99
66506;HTU21D;53332;51.082;5.832;2023-05-07T02:06:39;15.99;118.99
66506;HTU21D;53332;51.082;5.832;2023-05-07T02:09:05;16.01;118.99
66506;HTU21D;53332;51.082;5.832;2023-05-07T02:11:30;15.98;118.99
66506;HTU21D;53332;51.082;5.832;2023-05-07T02:13:55;15.97;118.99
66506;HTU21D;53332;51.082;5.832;2023-05-07T02:16:21;15.92;118.99
66506;HTU21D;53332;51.082;5.832;2023-05-07T02:18:48;15.89;118.99
66506;HTU21D;53332;51.082;5.832;2023-05-07T02:21:14;15.85;118.99
66506;HTU21D;53332;51.082;5.832;2023-05-07T02:23:39;15.84;118.99
66506;HTU21D;53332;51.082;5.832;2023-05-07T02:26:05;15.83;118.99
66506;HTU21D;53332;51.082;5.832;2023-05-07T02:28:30;15.81;118.99
66506;HTU21D;53332;51.082;5.832;2023-05-07T02:30:56;15.83;118.99
66506;HTU21D;53332;51.082;5.832;2023-05-07T02:33:24;15.85;118.99
66506;HTU21D;53332;51.082;5.832;2023-05-07T02:35:50;15.88;118.99
66506;HTU21D;53332;51.082;5.832;2023-05-07T02:38:17;15.87;118.99
66506;HTU21D;53332;51.082;5.832;2023-05-07T02:40:43;15.83;118.99
66506;HTU21D;53332;51.082;5.832;2023-05-07T02:43:08;15.77;118.99
66506;HTU21D;53332;51.082;5.832;2023-05-07T02:45:34;15.71;118.99
66506;HTU21D;53332;51.082;5.832;2023-05-07T02:48:00;15.76;118.99
66506;HTU21D;53332;51.082;5.832;2023-05-07T02:50:25;15.77;118.99
66506;HTU21D;53332;51.082;5.832;2023-05-07T02:52:52;15.78;118.99
66506;HTU21D;53332;51.082;5.832;2023-05-07T02:55:17;15.78;118.99
66506;HTU21D;53332;51.082;5.832;2023-05-07T02:57:43;15.83;118.99
66506;HTU21D;53332;51.082;5.832;2023-05-07T03:00:14;15.87;118.99
66506;HTU21D;53332;51.082;5.832;2023-05-07T03:02:40;15.90;118.99
66506;HTU21D;53332;51.082;5.832;2023-05-07T03:05:06;15.92;118.99
66506;HTU21D;53332;51.082;5.832;2023-05-07T03:07:31;15.96;118.99
66506;HTU21D;53332;51.082;5.832;2023-05-07T03:09:57;15.98;118.99
66506;HTU21D;53332;51.082;5.832;2023-05-07T03:12:22;15.97;118.99
66506;HTU21D;53332;51.082;5.832;2023-05-07T03:14:48;15.95;118.99
66506;HTU21D;53332;51.082;5.832;2023-05-07T03:17:13;15.93;118.99
66506;HTU21D;53332;51.082;5.832;2023-05-07T03:19:38;15.93;118.99
66506;HTU21D;53332;51.082;5.832;2023-05-07T03:22:04;15.95;118.99
66506;HTU21D;53332;51.082;5.832;2023-05-07T03:24:29;15.93;118.99
66506;HTU21D;53332;51.082;5.832;2023-05-07T03:26:55;15.93;118.99
66506;HTU21D;53332;51.082;5.832;2023-05-07T03:29:20;15.90;118.99
66506;HTU21D;53332;51.082;5.832;2023-05-07T03:31:46;15.89;118.99
66506;HTU21D;53332;51.082;5.832;2023-05-07T03:34:11;15.86;118.99
66506;HTU21D;53332;51.082;5.832;2023-05-07T03:36:37;15.86;118.99
66506;HTU21D;53332;51.082;5.832;2023-05-07T03:39:02;15.84;118.99
66506;HTU21D;53332;51.082;5.832;2023-05-07T03:41:28;15.77;118.99
66506;HTU21D;53332;51.082;5.832;2023-05-07T03:43:54;15.70;118.99
66506;HTU21D;53332;51.082;5.832;2023-05-07T03:46:20;15.62;118.99
66506;HTU21D;53332;51.082;5.832;2023-05-07T03:48:46;15.54;118.99
66506;HTU21D;53332;51.082;5.832;2023-05-07T03:51:11;15.47;118.99
66506;HTU21D;53332;51.082;5.832;2023-05-07T03:53:37;15.46;118.99
66506;HTU21D;53332;51.082;5.832;2023-05-07T03:56:02;15.46;118.99
66506;HTU21D;53332;51.082;5.832;2023-05-07T03:58:28;15.47;118.99
66506;HTU21D;53332;51.082;5.832;2023-05-07T04:00:53;15.47;118.99
66506;HTU21D;53332;51.082;5.832;2023-05-07T04:03:19;15.44;118.99
66506;HTU21D;53332;51.082;5.832;2023-05-07T04:05:44;15.42;118.99
66506;HTU21D;53332;51.082;5.832;2023-05-07T04:08:10;15.41;118.99
66506;HTU21D;53332;51.082;5.832;2023-05-07T04:10:35;15.40;118.99
66506;HTU21D;53332;51.082;5.832;2023-05-07T04:13:01;15.38;118.99
66506;HTU21D;53332;51.082;5.832;2023-05-07T04:15:26;15.31;118.99
66506;HTU21D;53332;51.082;5.832;2023-05-07T04:17:52;15.31;118.99
66506;HTU21D;53332;51.082;5.832;2023-05-07T04:20:17;15.37;118.99
66506;HTU21D;53332;51.082;5.832;2023-05-07T04:22:43;15.40;118.99
66506;HTU21D;53332;51.082;5.832;2023-05-07T04:25:09;15.43;118.99
66506;HTU21D;53332;51.082;5.832;2023-05-07T04:27:35;15.41;118.99
66506;HTU21D;53332;51.082;5.832;2023-05-07T04:30:02;15.42;118.99
66506;HTU21D;53332;51.082;5.832;2023-05-07T04:32:28;15.44;118.99
66506;HTU21D;53332;51.082;5.832;2023-05-07T04:34:58;15.42;118.99
66506;HTU21D;53332;51.082;5.832;2023-05-07T04:37:25;15.45;118.99
66506;HTU21D;53332;51.082;5.832;2023-05-07T04:39:51;15.49;118.99
66506;HTU21D;53332;51.082;5.832;2023-05-07T04:42:17;15.55;118.99
66506;HTU21D;53332;51.082;5.832;2023-05-07T04:44:44;15.60;118.99
66506;HTU21D;53332;51.082;5.832;2023-05-07T04:47:11;15.63;118.99
66506;HTU21D;53332;51.082;5.832;2023-05-07T04:49:38;15.70;118.99
66506;HTU21D;53332;51.082;5.832;2023-05-07T04:52:03;15.74;118.99
66506;HTU21D;53332;51.082;5.832;2023-05-07T04:54:29;15.77;118.99
66506;HTU21D;53332;51.082;5.832;2023-05-07T04:56:55;15.82;118.99
66506;HTU21D;53332;51.082;5.832;2023-05-07T04:59:20;15.84;118.99
66506;HTU21D;53332;51.082;5.832;2023-05-07T05:01:46;15.86;118.99
66506;HTU21D;53332;51.082;5.832;2023-05-07T05:04:12;15.90;118.99
66506;HTU21D;53332;51.082;5.832;2023-05-07T05:06:38;15.89;118.99
66506;HTU21D;53332;51.082;5.832;2023-05-07T05:09:03;15.91;118.99
66506;HTU21D;53332;51.082;5.832;2023-05-07T05:11:30;15.98;118.99
66506;HTU21D;53332;51.082;5.832;2023-05-07T05:13:56;16.02;118.99
66506;HTU21D;53332;51.082;5.832;2023-05-07T05:16:21;16.04;118.99
66506;HTU21D;53332;51.082;5.832;2023-05-07T05:18:47;16.08;118.99
66506;HTU21D;53332;51.082;5.832;2023-05-07T05:21:12;16.14;118.99
66506;HTU21D;53332;51.082;5.832;2023-05-07T05:23:38;16.18;118.99
66506;HTU21D;53332;51.082;5.832;2023-05-07T05:26:04;16.18;118.99
66506;HTU21D;53332;51.082;5.832;2023-05-07T05:28:29;16.22;118.99
66506;HTU21D;53332;51.082;5.832;2023-05-07T05:30:55;16.26;118.99
66506;HTU21D;53332;51.082;5.832;2023-05-07T05:33:20;16.28;118.99
66506;HTU21D;53332;51.082;5.832;2023-05-07T05:35:46;16.29;118.99
66506;HTU21D;53332;51.082;5.832;2023-05-07T05:38:11;16.29;118.99
66506;HTU21D;53332;51.082;5.832;2023-05-07T05:40:37;16.31;118.99
66506;HTU21D;53332;51.082;5.832;2023-05-07T05:43:02;16.37;118.99
66506;HTU21D;53332;51.082;5.832;2023-05-07T05:45:28;16.43;118.99
66506;HTU21D;53332;51.082;5.832;2023-05-07T05:47:56;16.47;118.99
66506;HTU21D;53332;51.082;5.832;2023-05-07T05:50:21;16.48;118.99
66506;HTU21D;53332;51.082;5.832;2023-05-07T05:52:47;16.51;118.99
66506;HTU21D;53332;51.082;5.832;2023-05-07T05:55:12;16.52;118.99
66506;HTU21D;53332;51.082;5.832;2023-05-07T05:57:38;16.52;118.99
66506;HTU21D;53332;51.082;5.832;2023-05-07T06:00:04;16.50;118.99
66506;HTU21D;53332;51.082;5.832;2023-05-07T06:02:29;16.45;118.99
66506;HTU21D;53332;51.082;5.832;2023-05-07T06:04:55;16.37;118.99
66506;HTU21D;53332;51.082;5.832;2023-05-07T06:07:20;16.40;118.99
66506;HTU21D;53332;51.082;5.832;2023-05-07T06:09:46;16.44;118.99
66506;HTU21D;53332;51.082;5.832;2023-05-07T06:12:12;16.57;118.99
66506;HTU21D;53332;51.082;5.832;2023-05-07T06:14:37;16.58;118.99
66506;HTU21D;53332;51.082;5.832;2023-05-07T06:17:03;16.63;118.99
66506;HTU21D;53332;51.082;5.832;2023-05-07T06:19:28;16.67;118.99
66506;HTU21D;53332;51.082;5.832;2023-05-07T06:21:54;16.73;118.99
66506;HTU21D;53332;51.082;5.832;2023-05-07T06:24:21;16.80;118.99
66506;HTU21D;53332;51.082;5.832;2023-05-07T06:26:47;16.86;118.99
66506;HTU21D;53332;51.082;5.832;2023-05-07T06:29:13;16.92;118.99
66506;HTU21D;53332;51.082;5.832;2023-05-07T06:31:39;16.96;118.99
66506;HTU21D;53332;51.082;5.832;2023-05-07T06:34:04;17.02;118.99
66506;HTU21D;53332;51.082;5.832;2023-05-07T06:36:30;17.04;118.99
66506;HTU21D;53332;51.082;5.832;2023-05-07T06:38:56;17.07;118.99
66506;HTU21D;53332;51.082;5.832;2023-05-07T06:41:21;17.10;118.99
66506;HTU21D;53332;51.082;5.832;2023-05-07T06:43:47;17.11;118.99
66506;HTU21D;53332;51.082;5.832;2023-05-07T06:46:12;17.14;118.99
66506;HTU21D;53332;51.082;5.832;2023-05-07T06:48:38;17.15;118.99
66506;HTU21D;53332;51.082;5.832;2023-05-07T06:51:03;17.17;118.99
66506;HTU21D;53332;51.082;5.832;2023-05-07T06:53:29;17.22;118.99
66506;HTU21D;53332;51.082;5.832;2023-05-07T06:55:56;17.25;118.99
66506;HTU21D;53332;51.082;5.832;2023-05-07T06:58:22;17.30;118.99
66506;HTU21D;53332;51.082;5.832;2023-05-07T07:00:47;17.34;118.99
66506;HTU21D;53332;51.082;5.832;2023-05-07T07:03:13;17.35;118.99
66506;HTU21D;53332;51.082;5.832;2023-05-07T07:05:40;17.43;118.99
66506;HTU21D;53332;51.082;5.832;2023-05-07T07:08:06;17.53;118.99
66506;HTU21D;53332;51.082;5.832;2023-05-07T07:10:32;17.60;118.99
66506;HTU21D;53332;51.082;5.832;2023-05-07T07:12:57;17.66;118.99
66506;HTU21D;53332;51.082;5.832;2023-05-07T07:15:22;17.73;118.99
66506;HTU21D;53332;51.082;5.832;2023-05-07T07:17:50;17.78;118.99
66506;HTU21D;53332;51.082;5.832;2023-05-07T07:20:16;17.85;118.99
66506;HTU21D;53332;51.082;5.832;2023-05-07T07:22:41;17.89;118.99
66506;HTU21D;53332;51.082;5.832;2023-05-07T07:25:07;17.93;118.99
66506;HTU21D;53332;51.082;5.832;2023-05-07T07:27:33;17.98;118.99
66506;HTU21D;53332;51.082;5.832;2023-05-07T07:29:58;18.05;118.99
66506;HTU21D;53332;51.082;5.832;2023-05-07T07:32:24;18.15;118.99
66506;HTU21D;53332;51.082;5.832;2023-05-07T07:34:49;18.28;118.99
66506;HTU21D;53332;51.082;5.832;2023-05-07T07:37:15;18.37;118.99
66506;HTU21D;53332;51.082;5.832;2023-05-07T07:39:40;18.48;118.99
66506;HTU21D;53332;51.082;5.832;2023-05-07T07:42:06;18.59;118.99
66506;HTU21D;53332;51.082;5.832;2023-05-07T07:44:32;18.73;117.89
66506;HTU21D;53332;51.082;5.832;2023-05-07T07:46:57;18.89;117.29
66506;HTU21D;53332;51.082;5.832;2023-05-07T07:49:22;19.07;115.15
66506;HTU21D;53332;51.082;5.832;2023-05-07T07:51:48;19.27;114.68
66506;HTU21D;53332;51.082;5.832;2023-05-07T07:54:14;19.43;112.92
66506;HTU21D;53332;51.082;5.832;2023-05-07T07:56:39;19.55;111.30
66506;HTU21D;53332;51.082;5.832;2023-05-07T07:59:05;19.72;109.81
66506;HTU21D;53332;51.082;5.832;2023-05-07T08:01:31;19.90;107.88
66506;HTU21D;53332;51.082;5.832;2023-05-07T08:03:56;20.04;106.82
66506;HTU21D;53332;51.082;5.832;2023-05-07T08:06:24;20.18;105.12
66506;HTU21D;53332;51.082;5.832;2023-05-07T08:08:50;20.33;101.62
66506;HTU21D;53332;51.082;5.832;2023-05-07T08:11:16;20.54;100.34
66506;HTU21D;53332;51.082;5.832;2023-05-07T08:13:41;20.71;98.71
66506;HTU21D;53332;51.082;5.832;2023-05-07T08:16:07;20.79;97.68
66506;HTU21D;53332;51.082;5.832;2023-05-07T08:18:33;21.07;96.45
66506;HTU21D;53332;51.082;5.832;2023-05-07T08:20:58;21.29;95.35
66506;HTU21D;53332;51.082;5.832;2023-05-07T08:23:24;21.54;96.11
66506;HTU21D;53332;51.082;5.832;2023-05-07T08:25:49;21.78;93.96
66506;HTU21D;53332;51.082;5.832;2023-05-07T08:28:16;22.06;92.69
66506;HTU21D;53332;51.082;5.832;2023-05-07T08:30:42;22.32;88.47
66506;HTU21D;53332;51.082;5.832;2023-05-07T08:33:09;22.44;85.09
66506;HTU21D;53332;51.082;5.832;2023-05-07T08:35:34;22.62;85.74
66506;HTU21D;53332;51.082;5.832;2023-05-07T08:38:00;22.73;84.87
66506;HTU21D;53332;51.082;5.832;2023-05-07T08:40:26;22.82;83.69
66506;HTU21D;53332;51.082;5.832;2023-05-07T08:42:53;22.84;80.72
66506;HTU21D;53332;51.082;5.832;2023-05-07T08:45:19;22.86;79.87
66506;HTU21D;53332;51.082;5.832;2023-05-07T08:47:58;22.97;79.91
66506;HTU21D;53332;51.082;5.832;2023-05-07T08:50:24;23.00;79.20
66506;HTU21D;53332;51.082;5.832;2023-05-07T08:52:50;23.00;78.36
66506;HTU21D;53332;51.082;5.832;2023-05-07T08:55:16;22.95;79.79
66506;HTU21D;53332;51.082;5.832;2023-05-07T08:57:42;22.92;80.93
66506;HTU21D;53332;51.082;5.832;2023-05-07T09:00:08;22.97;81.27
66506;HTU21D;53332;51.082;5.832;2023-05-07T09:02:36;22.98;80.27
66506;HTU21D;53332;51.082;5.832;2023-05-07T09:05:02;22.93;79.80
66506;HTU21D;53332;51.082;5.832;2023-05-07T09:07:27;22.88;79.98
66506;HTU21D;53332;51.082;5.832;2023-05-07T09:09:53;22.85;79.62
66506;HTU21D;53332;51.082;5.832;2023-05-07T09:12:21;22.80;77.72
66506;HTU21D;53332;51.082;5.832;2023-05-07T09:14:47;22.75;78.44
66506;HTU21D;53332;51.082;5.832;2023-05-07T09:17:13;22.73;79.09
66506;HTU21D;53332;51.082;5.832;2023-05-07T09:19:38;22.72;78.52
66506;HTU21D;53332;51.082;5.832;2023-05-07T09:22:05;22.67;77.11
66506;HTU21D;53332;51.082;5.832;2023-05-07T09:24:32;22.57;78.76
66506;HTU21D;53332;51.082;5.832;2023-05-07T09:27:03;22.54;79.77
66506;HTU21D;53332;51.082;5.832;2023-05-07T09:29:29;22.50;80.24
66506;HTU21D;53332;51.082;5.832;2023-05-07T09:32:03;22.46;80.00
66506;HTU21D;53332;51.082;5.832;2023-05-07T09:34:30;22.43;80.95
66506;HTU21D;53332;51.082;5.832;2023-05-07T09:36:57;22.48;80.94
66506;HTU21D;53332;51.082;5.832;2023-05-07T09:39:23;22.47;80.76
66506;HTU21D;53332;51.082;5.832;2023-05-07T09:41:49;22.48;79.33
66506;HTU21D;53332;51.082;5.832;2023-05-07T09:44:16;22.54;79.21
66506;HTU21D;53332;51.082;5.832;2023-05-07T09:46:43;22.65;78.84
66506;HTU21D;53332;51.082;5.832;2023-05-07T09:49:23;22.75;77.04
66506;HTU21D;53332;51.082;5.832;2023-05-07T09:51:51;22.82;77.21
66506;HTU21D;53332;51.082;5.832;2023-05-07T09:54:18;22.91;78.80
66506;HTU21D;53332;51.082;5.832;2023-05-07T09:56:52;23.00;75.86
66506;HTU21D;53332;51.082;5.832;2023-05-07T09:59:18;23.10;74.99
66506;HTU21D;53332;51.082;5.832;2023-05-07T10:01:45;23.29;75.12
66506;HTU21D;53332;51.082;5.832;2023-05-07T10:04:12;23.41;74.01
66506;HTU21D;53332;51.082;5.832;2023-05-07T10:06:38;23.46;72.64
66506;HTU21D;53332;51.082;5.832;2023-05-07T10:09:05;23.49;71.76
66506;HTU21D;53332;51.082;5.832;2023-05-07T10:11:33;23.47;69.99
66506;HTU21D;53332;51.082;5.832;2023-05-07T10:13:59;23.53;69.54
66506;HTU21D;53332;51.082;5.832;2023-05-07T10:16:29;23.57;70.05
66506;HTU21D;53332;51.082;5.832;2023-05-07T10:18:58;23.67;70.72
66506;HTU21D;53332;51.082;5.832;2023-05-07T10:21:26;23.72;70.27
66506;HTU21D;53332;51.082;5.832;2023-05-07T10:24:09;23.84;71.14
66506;HTU21D;53332;51.082;5.832;2023-05-07T10:26:42;23.92;69.42
66506;HTU21D;53332;51.082;5.832;2023-05-07T10:29:25;23.95;69.13
66506;HTU21D;53332;51.082;5.832;2023-05-07T10:32:26;24.05;68.76
66506;HTU21D;53332;51.082;5.832;2023-05-07T10:35:02;24.11;70.68
66506;HTU21D;53332;51.082;5.832;2023-05-07T10:37:29;24.12;70.62
66506;HTU21D;53332;51.082;5.832;2023-05-07T10:39:55;24.10;70.32
66506;HTU21D;53332;51.082;5.832;2023-05-07T10:42:20;24.03;69.20
66506;HTU21D;53332;51.082;5.832;2023-05-07T10:44:46;23.96;68.68
66506;HTU21D;53332;51.082;5.832;2023-05-07T10:47:16;23.85;67.67
66506;HTU21D;53332;51.082;5.832;2023-05-07T10:52:21;23.68;67.20
66506;HTU21D;53332;51.082;5.832;2023-05-07T10:57:42;23.66;68.01
66506;HTU21D;53332;51.082;5.832;2023-05-07T11:05:31;23.69;67.81
66506;HTU21D;53332;51.082;5.832;2023-05-07T11:07:58;23.74;66.56
66506;HTU21D;53332;51.082;5.832;2023-05-07T11:10:53;23.79;67.47
66506;HTU21D;53332;51.082;5.832;2023-05-07T11:13:42;23.79;66.70
66506;HTU21D;53332;51.082;5.832;2023-05-07T11:16:23;23.80;66.28
66506;HTU21D;53332;51.082;5.832;2023-05-07T11:18:56;23.71;65.27
66506;HTU21D;53332;51.082;5.832;2023-05-07T11:24:00;23.60;66.19
66506;HTU21D;53332;51.082;5.832;2023-05-07T11:26:28;23.52;64.72
66506;HTU21D;53332;51.082;5.832;2023-05-07T11:28:54;23.41;64.11
66506;HTU21D;53332;51.082;5.832;2023-05-07T11:31:22;23.35;63.24
66506;HTU21D;53332;51.082;5.832;2023-05-07T11:33:49;23.34;64.50
66506;HTU21D;53332;51.082;5.832;2023-05-07T11:36:15;23.32;65.85
66506;HTU21D;53332;51.082;5.832;2023-05-07T11:38:41;23.30;66.11
66506;HTU21D;53332;51.082;5.832;2023-05-07T11:41:07;23.30;68.04
66506;HTU21D;53332;51.082;5.832;2023-05-07T11:43:34;23.22;70.51
66506;HTU21D;53332;51.082;5.832;2023-05-07T11:46:09;23.11;72.84
66506;HTU21D;53332;51.082;5.832;2023-05-07T11:48:35;22.96;74.25
66506;HTU21D;53332;51.082;5.832;2023-05-07T11:51:07;22.65;74.82
66506;HTU21D;53332;51.082;5.832;2023-05-07T11:53:40;22.07;76.63
66506;HTU21D;53332;51.082;5.832;2023-05-07T11:56:11;21.57;80.08
66506;HTU21D;53332;51.082;5.832;2023-05-07T11:58:37;21.14;83.05
66506;HTU21D;53332;51.082;5.832;2023-05-07T12:01:03;20.76;86.69
66506;HTU21D;53332;51.082;5.832;2023-05-07T12:03:29;20.53;89.75
66506;HTU21D;53332;51.082;5.832;2023-05-07T12:05:55;20.32;92.96
66506;HTU21D;53332;51.082;5.832;2023-05-07T12:08:21;20.16;95.83
66506;HTU21D;53332;51.082;5.832;2023-05-07T12:10:50;20.02;97.94
66506;HTU21D;53332;51.082;5.832;2023-05-07T12:13:21;20.00;100.25
66506;HTU21D;53332;51.082;5.832;2023-05-07T12:15:52;19.99;102.68
66506;HTU21D;53332;51.082;5.832;2023-05-07T12:18:18;19.99;104.08
66506;HTU21D;53332;51.082;5.832;2023-05-07T12:20:44;20.01;103.93
66506;HTU21D;53332;51.082;5.832;2023-05-07T12:23:11;20.04;104.66
66506;HTU21D;53332;51.082;5.832;2023-05-07T12:25:38;20.09;105.79
66506;HTU21D;53332;51.082;5.832;2023-05-07T12:28:04;20.13;106.33
66506;HTU21D;53332;51.082;5.832;2023-05-07T12:30:39;20.19;106.46
66506;HTU21D;53332;51.082;5.832;2023-05-07T12:33:05;20.25;106.53
66506;HTU21D;53332;51.082;5.832;2023-05-07T12:35:32;20.28;106.37
66506;HTU21D;53332;51.082;5.832;2023-05-07T12:38:01;20.32;107.11
66506;HTU21D;53332;51.082;5.832;2023-05-07T12:40:55;20.41;107.20
66506;HTU21D;53332;51.082;5.832;2023-05-07T12:43:25;20.41;107.75
66506;HTU21D;53332;51.082;5.832;2023-05-07T12:45:54;20.43;109.97
66506;HTU21D;53332;51.082;5.832;2023-05-07T12:48:20;20.45;111.74
66506;HTU21D;53332;51.082;5.832;2023-05-07T12:50:50;20.47;111.85
66506;HTU21D;53332;51.082;5.832;2023-05-07T12:53:16;20.48;111.22
66506;HTU21D;53332;51.082;5.832;2023-05-07T12:55:50;20.51;111.79
66506;HTU21D;53332;51.082;5.832;2023-05-07T12:58:30;20.61;112.06
66506;HTU21D;53332;51.082;5.832;2023-05-07T13:00:59;20.70;110.63
66506;HTU21D;53332;51.082;5.832;2023-05-07T13:03:34;20.77;108.82
66506;HTU21D;53332;51.082;5.832;2023-05-07T13:06:06;20.85;106.58
66506;HTU21D;53332;51.082;5.832;2023-05-07T13:08:34;20.93;104.44
66506;HTU21D;53332;51.082;5.832;2023-05-07T13:11:01;21.04;103.98
66506;HTU21D;53332;51.082;5.832;2023-05-07T13:13:34;21.13;103.97
66506;HTU21D;53332;51.082;5.832;2023-05-07T13:16:01;21.21;104.75
66506;HTU21D;53332;51.082;5.832;2023-05-07T13:18:28;21.23;103.14
66506;HTU21D;53332;51.082;5.832;2023-05-07T13:20:54;21.20;100.12
66506;HTU21D;53332;51.082;5.832;2023-05-07T13:23:20;21.24;99.26
66506;HTU21D;53332;51.082;5.832;2023-05-07T13:25:46;21.29;99.06
66506;HTU21D;53332;51.082;5.832;2023-05-07T13:28:11;21.32;97.90
66506;HTU21D;53332;51.082;5.832;2023-05-07T13:30:37;21.36;97.65
66506;HTU21D;53332;51.082;5.832;2023-05-07T13:33:03;21.39;98.68
66506;HTU21D;53332;51.082;5.832;2023-05-07T13:35:29;21.43;98.45
66506;HTU21D;53332;51.082;5.832;2023-05-07T13:37:55;21.46;98.33
66506;HTU21D;53332;51.082;5.832;2023-05-07T13:40:23;21.54;97.92
66506;HTU21D;53332;51.082;5.832;2023-05-07T13:42:49;21.60;96.10
66506;HTU21D;53332;51.082;5.832;2023-05-07T13:45:19;21.66;95.45
66506;HTU21D;53332;51.082;5.832;2023-05-07T13:47:45;21.72;92.95
66506;HTU21D;53332;51.082;5.832;2023-05-07T13:50:11;21.78;92.07
66506;HTU21D;53332;51.082;5.832;2023-05-07T13:52:40;21.83;89.68
66506;HTU21D;53332;51.082;5.832;2023-05-07T13:55:06;21.87;87.87
66506;HTU21D;53332;51.082;5.832;2023-05-07T13:57:32;21.87;86.32
66506;HTU21D;53332;51.082;5.832;2023-05-07T13:59:58;21.87;85.52
66506;HTU21D;53332;51.082;5.832;2023-05-07T14:02:23;21.80;83.74
66506;HTU21D;53332;51.082;5.832;2023-05-07T14:04:48;21.78;82.65
66506;HTU21D;53332;51.082;5.832;2023-05-07T14:07:14;21.82;82.58
66506;HTU21D;53332;51.082;5.832;2023-05-07T14:09:40;21.87;85.00
66506;HTU21D;53332;51.082;5.832;2023-05-07T14:12:06;21.95;85.64
66506;HTU21D;53332;51.082;5.832;2023-05-07T14:14:31;21.97;84.76
66506;HTU21D;53332;51.082;5.832;2023-05-07T14:16:57;21.96;84.30
66506;HTU21D;53332;51.082;5.832;2023-05-07T14:19:22;21.99;84.93
66506;HTU21D;53332;51.082;5.832;2023-05-07T14:21:48;22.02;85.65
66506;HTU21D;53332;51.082;5.832;2023-05-07T14:24:14;22.02;84.41
66506;HTU21D;53332;51.082;5.832;2023-05-07T14:26:40;22.04;85.79
66506;HTU21D;53332;51.082;5.832;2023-05-07T14:29:05;22.05;86.98
66506;HTU21D;53332;51.082;5.832;2023-05-07T14:31:31;22.01;87.58
66506;HTU21D;53332;51.082;5.832;2023-05-07T14:33:56;21.96;87.77
66506;HTU21D;53332;51.082;5.832;2023-05-07T14:36:23;21.89;85.46
66506;HTU21D;53332;51.082;5.832;2023-05-07T14:38:52;21.83;85.10
66506;HTU21D;53332;51.082;5.832;2023-05-07T14:41:18;21.78;85.20
66506;HTU21D;53332;51.082;5.832;2023-05-07T14:43:43;21.77;86.39
66506;HTU21D;53332;51.082;5.832;2023-05-07T14:46:16;21.79;87.02
66506;HTU21D;53332;51.082;5.832;2023-05-07T14:48:42;21.79;86.06
66506;HTU21D;53332;51.082;5.832;2023-05-07T14:51:08;21.74;84.60
66506;HTU21D;53332;51.082;5.832;2023-05-07T14:53:33;21.74;85.48
66506;HTU21D;53332;51.082;5.832;2023-05-07T14:55:59;21.73;86.03
66506;HTU21D;53332;51.082;5.832;2023-05-07T14:58:25;21.75;86.80
66506;HTU21D;53332;51.082;5.832;2023-05-07T15:00:50;21.77;86.51
66506;HTU21D;53332;51.082;5.832;2023-05-07T15:03:16;21.80;86.82
66506;HTU21D;53332;51.082;5.832;2023-05-07T15:05:42;21.84;87.96
66506;HTU21D;53332;51.082;5.832;2023-05-07T15:08:08;21.90;87.86
66506;HTU21D;53332;51.082;5.832;2023-05-07T15:10:37;21.89;87.83
66506;HTU21D;53332;51.082;5.832;2023-05-07T15:13:07;21.89;87.12
66506;HTU21D;53332;51.082;5.832;2023-05-07T15:15:33;21.90;87.51
66506;HTU21D;53332;51.082;5.832;2023-05-07T15:17:58;21.90;87.19
66506;HTU21D;53332;51.082;5.832;2023-05-07T15:20:26;21.88;87.18